Darstellungsparameter: Aktuell verwendete Einstellungen:
Skalierung der Graphiken ... ?
xyx+y,   Skalierungsfaktor:      Skalierung: Modus: x, Faktor: 1
Darstellungszeitraum ... ?
Vom - - bis: - -   Zeitraum: 16.11.2007 - 17.11.2007
Min/Max/Avg-Anzeige ... ?
Zeige MMA aktuell
Zeige MMA Monat
Zeige MMA alles
Zeige --A aktuell
Zeige --A Monat
Zeige --A alles
Keine MMA-Anzeige
MMA:
Average (ber die Originaldaten)
MMA-Basis: 17.04.2019 - 19.05.2019
Quicknavigation für Darstellung... ?
Tage:      1T, 2T, 3T, 5T -1T -2T -3T -5T +1T +2T +3T +5T
Wochen: 1W, 2W, 3W -1W -2W -3W +1W +2W +3W
Monate: 1M, 3M, 6M -1M -3M -6M +1M +3M +6M
Jahre:    1J, 3J, 5J, 10J -1J -3J -5J -10J +1J +3J +5J +10J
Nutze für die Darstellung ... ?
Originaldaten oder Mittelwerte auf ...
Stundenbasis Tagesbasis Wochenbasis
Monatsbasis Jahresbasis      Datenbasis: Original-Daten
Darstellen als:
Statistik (Auto) Statistik J:M      Darstellung:
Zur Graphik,    zurück zur Übersicht aller Sensoren.
 
Tabellarische Datenbersicht: ?
 
Sensor: Nr:Datum:Temp:Abs-Feuchte:Windchill:Wind:
Aussen-T/F 1 16-11-2007 00:10:02 -2.1 C 3.47 g/m*3 -2.1 C 0 km/h
2 16-11-2007 00:22:03 -1.9 C 3.61 g/m*3 -1.9 C 0 km/h
3 16-11-2007 00:34:02 -1.6 C 3.73 g/m*3 -1.6 C 0 km/h
4 16-11-2007 00:46:02 -1.6 C 3.77 g/m*3 -1.6 C 0 km/h
5 16-11-2007 00:58:02 -1.8 C 3.72 g/m*3 -1.8 C 0 km/h
6 16-11-2007 01:10:02 -2 C 3.67 g/m*3 -2 C 0 km/h
7 16-11-2007 01:22:02 -2 C 3.67 g/m*3 -2 C 0 km/h
8 16-11-2007 01:34:02 -1.9 C 3.69 g/m*3 -1.9 C 0 km/h
9 16-11-2007 01:46:02 -2.1 C 3.64 g/m*3 -2.1 C 0 km/h
10 16-11-2007 01:58:02 -2.1 C 3.68 g/m*3 -2.1 C 0 km/h
11 16-11-2007 02:10:02 -2.3 C 3.63 g/m*3 -2.3 C 0 km/h
12 16-11-2007 02:22:02 -2.3 C 3.63 g/m*3 -2.3 C 0 km/h
13 16-11-2007 02:34:02 -2.4 C 3.65 g/m*3 -2.4 C 0 km/h
14 16-11-2007 02:47:04 -2.5 C 3.62 g/m*3 -2.5 C 0 km/h
15 16-11-2007 02:59:04 -2.6 C 3.6 g/m*3 -2.6 C 0 km/h
16 16-11-2007 03:11:04 -2.6 C 3.6 g/m*3 -2.6 C 0 km/h
17 16-11-2007 03:23:04 -2.7 C 3.57 g/m*3 -2.7 C 0 km/h
18 16-11-2007 03:35:02 -2.7 C 3.61 g/m*3 -2.7 C 0 km/h
19 16-11-2007 03:47:02 -3 C 3.54 g/m*3 -3 C 0 km/h
20 16-11-2007 03:59:02 -2.9 C 3.56 g/m*3 -2.9 C 0 km/h
21 16-11-2007 04:11:02 -2.8 C 3.59 g/m*3 -2.8 C 0 km/h
22 16-11-2007 04:23:03 -3 C 3.54 g/m*3 -3 C 0 km/h
23 16-11-2007 04:35:02 -3 C 3.54 g/m*3 -3 C 0 km/h
24 16-11-2007 04:47:03 -3.1 C 3.55 g/m*3 -3.1 C 0 km/h
25 16-11-2007 04:59:03 -3.3 C 3.5 g/m*3 -3.3 C 0 km/h
Sensor: Nr:Datum:Temp:Abs-Feuchte:Windchill:Wind:
Aussen-T/F 26 16-11-2007 05:11:02 -3.4 C 3.47 g/m*3 -3.4 C 0 km/h
27 16-11-2007 05:23:02 -3.4 C 3.47 g/m*3 -3.4 C 0 km/h
28 16-11-2007 05:35:02 -3.5 C 3.45 g/m*3 -3.5 C 0 km/h
29 16-11-2007 05:47:02 -3.6 C 3.43 g/m*3 -3.6 C 0 km/h
30 16-11-2007 05:59:02 -3.6 C 3.43 g/m*3 -3.6 C 0 km/h
31 16-11-2007 06:11:02 -3.5 C 3.49 g/m*3 -3.5 C 0 km/h
32 16-11-2007 06:23:02 -3.5 C 3.49 g/m*3 -3.5 C 0 km/h
33 16-11-2007 06:35:02 -3.6 C 3.46 g/m*3 -3.6 C 0 km/h
34 16-11-2007 06:47:02 -3.7 C 3.4 g/m*3 -3.7 C 0 km/h
35 16-11-2007 06:59:03 -4 C 3.33 g/m*3 -4 C 0 km/h
36 16-11-2007 07:11:02 -3.9 C 3.35 g/m*3 -3.9 C 0 km/h
37 16-11-2007 07:23:02 -3.9 C 3.35 g/m*3 -3.9 C 0 km/h
38 16-11-2007 07:35:02 -3.9 C 3.35 g/m*3 -3.9 C 0 km/h
39 16-11-2007 07:47:02 -3.8 C 3.38 g/m*3 -3.8 C 0 km/h
40 16-11-2007 07:59:02 -3.8 C 3.38 g/m*3 -3.8 C 0 km/h
41 16-11-2007 08:11:02 -3.8 C 3.38 g/m*3 -3.8 C 0 km/h
42 16-11-2007 08:23:02 -3.5 C 3.49 g/m*3 -3.5 C 0 km/h
43 16-11-2007 08:35:02 -3.5 C 3.49 g/m*3 -3.5 C 0 km/h
44 16-11-2007 08:47:02 -3.4 C 3.47 g/m*3 -3.4 C 0 km/h
45 16-11-2007 08:59:02 -3.1 C 3.55 g/m*3 -3.1 C 0 km/h
46 16-11-2007 09:11:01 -2.9 C 3.6 g/m*3 -2.9 C 0 km/h
47 16-11-2007 09:23:01 -2.6 C 3.72 g/m*3 -2.6 C 0 km/h
48 16-11-2007 09:35:01 -2.7 C 3.65 g/m*3 -2.7 C 0 km/h
49 16-11-2007 09:47:02 -2.9 C 3.6 g/m*3 -2.9 C 0 km/h
50 16-11-2007 09:59:02 -2.7 C 3.65 g/m*3 -2.7 C 0 km/h
Sensor: Nr:Datum:Temp:Abs-Feuchte:Windchill:Wind:
Aussen-T/F 51 16-11-2007 10:11:02 -2.6 C 3.64 g/m*3 -2.6 C 0 km/h
52 16-11-2007 10:23:02 -2.3 C 3.71 g/m*3 -2.3 C 0 km/h
53 16-11-2007 10:35:02 -1.7 C 3.83 g/m*3 -1.7 C 0 km/h
54 16-11-2007 10:47:02 -1.3 C 3.94 g/m*3 -1.3 C 0 km/h
55 16-11-2007 10:59:02 -1 C 3.98 g/m*3 -1 C 0 km/h
56 16-11-2007 11:11:02 -0.7 C 3.97 g/m*3 -0.7 C 0 km/h
57 16-11-2007 11:23:02 -0.7 C 3.83 g/m*3 -0.7 C 0 km/h
58 16-11-2007 11:35:02 -0.5 C 3.88 g/m*3 -0.5 C 0 km/h
59 16-11-2007 11:47:02 -0.3 C 3.94 g/m*3 -0.3 C 0 km/h
60 16-11-2007 11:59:02 -0.2 C 3.87 g/m*3 -0.2 C 0 km/h
61 16-11-2007 12:11:02 0.1 C 3.95 g/m*3 0.1 C 0 km/h
62 16-11-2007 12:23:02 0.5 C 4.01 g/m*3 0.5 C 0 km/h
63 16-11-2007 12:35:02 0.9 C 3.97 g/m*3 0.9 C 0 km/h
64 16-11-2007 12:47:02 1.1 C 3.97 g/m*3 1.1 C 0 km/h
65 16-11-2007 12:59:02 1.8 C 4.06 g/m*3 1.8 C 0 km/h
66 16-11-2007 13:11:02 1.5 C 3.71 g/m*3 1.5 C 0 km/h
67 16-11-2007 13:23:02 1.8 C 3.89 g/m*3 1.8 C 0 km/h
68 16-11-2007 13:35:02 1.9 C 3.81 g/m*3 1.9 C 0 km/h
69 16-11-2007 13:47:02 2.2 C 3.89 g/m*3 2.2 C 0 km/h
70 16-11-2007 13:59:02 2.7 C 4.02 g/m*3 2.7 C 0 km/h
71 16-11-2007 14:11:02 2.7 C 3.96 g/m*3 2.7 C 0 km/h
72 16-11-2007 14:23:02 2.6 C 3.88 g/m*3 2.6 C 0 km/h
73 16-11-2007 14:35:02 3.3 C 4.06 g/m*3 3.3 C 0 km/h
74 16-11-2007 14:47:02 3.3 C 3.82 g/m*3 3.3 C 0 km/h
75 16-11-2007 14:59:02 3.2 C 3.92 g/m*3 3.2 C 0 km/h
Sensor: Nr:Datum:Temp:Abs-Feuchte:Windchill:Wind:
Aussen-T/F 76 16-11-2007 15:11:02 3 C 3.81 g/m*3 3 C 0 km/h
77 16-11-2007 15:23:02 2.9 C 3.9 g/m*3 2.9 C 0 km/h
78 16-11-2007 15:35:02 2.7 C 3.9 g/m*3 2.7 C 0 km/h
79 16-11-2007 15:47:02 2.5 C 3.97 g/m*3 2.5 C 0 km/h
80 16-11-2007 15:59:02 2.5 C 4.02 g/m*3 2.5 C 0 km/h
81 16-11-2007 16:11:02 2.3 C 4.03 g/m*3 2.3 C 0 km/h
82 16-11-2007 16:23:02 2.1 C 4.03 g/m*3 2.1 C 0 km/h
83 16-11-2007 16:35:02 2 C 4.06 g/m*3 2 C 0 km/h
84 16-11-2007 16:47:03 1.6 C 4.06 g/m*3 1.6 C 0 km/h
85 16-11-2007 16:59:03 1.5 C 4.08 g/m*3 1.5 C 0 km/h
86 16-11-2007 17:11:02 1.5 C 4.08 g/m*3 1.5 C 0 km/h
87 16-11-2007 17:23:02 1.4 C 4.11 g/m*3 1.4 C 0 km/h
88 16-11-2007 17:35:02 1.4 C 4.11 g/m*3 1.4 C 0 km/h
89 16-11-2007 17:47:02 1.3 C 4.08 g/m*3 1.3 C 0 km/h
90 16-11-2007 17:59:02 1.2 C 4.05 g/m*3 1.2 C 0 km/h
91 16-11-2007 18:11:02 1.1 C 4.08 g/m*3 1.1 C 0 km/h
92 16-11-2007 18:23:02 1.1 C 4.08 g/m*3 1.1 C 0 km/h
93 16-11-2007 18:35:03 1 C 4.05 g/m*3 1 C 0 km/h
94 16-11-2007 18:47:03 1 C 4.1 g/m*3 1 C 0 km/h
95 16-11-2007 18:59:03 1 C 4.1 g/m*3 1 C 0 km/h
96 16-11-2007 19:11:02 0.9 C 4.12 g/m*3 0.9 C 0 km/h
97 16-11-2007 19:23:03 0.9 C 4.12 g/m*3 0.9 C 0 km/h
98 16-11-2007 19:35:03 0.9 C 4.12 g/m*3 0.9 C 0 km/h
99 16-11-2007 19:47:03 0.7 C 4.07 g/m*3 0.7 C 0 km/h
100 16-11-2007 19:59:03 0.7 C 4.12 g/m*3 0.7 C 0 km/h
Sensor: Nr:Datum:Temp:Abs-Feuchte:Windchill:Wind:
Aussen-T/F 101 16-11-2007 20:11:03 0.7 C 4.12 g/m*3 0.7 C 0 km/h
102 16-11-2007 20:23:02 0.7 C 4.17 g/m*3 0.7 C 0 km/h
103 16-11-2007 20:35:02 0.8 C 4.15 g/m*3 0.8 C 0 km/h
104 16-11-2007 20:47:02 1 C 4.15 g/m*3 1 C 0 km/h
105 16-11-2007 20:59:02 1 C 4.1 g/m*3 1 C 0 km/h
106 16-11-2007 21:11:02 1 C 4.1 g/m*3 1 C 0 km/h
107 16-11-2007 21:23:02 1 C 4.1 g/m*3 1 C 0 km/h
108 16-11-2007 21:35:02 1 C 4.1 g/m*3 1 C 0 km/h
109 16-11-2007 21:47:02 0.9 C 4.12 g/m*3 0.9 C 0 km/h
110 16-11-2007 21:59:02 0.9 C 4.18 g/m*3 0.9 C 0 km/h
111 16-11-2007 22:11:02 0.8 C 4.2 g/m*3 0.8 C 0 km/h
112 16-11-2007 22:23:02 0.8 C 4.2 g/m*3 0.8 C 0 km/h
113 16-11-2007 22:35:02 0.9 C 4.23 g/m*3 0.9 C 0 km/h
114 16-11-2007 22:47:01 0.9 C 4.18 g/m*3 0.9 C 0 km/h
115 16-11-2007 22:59:01 0.9 C 4.18 g/m*3 0.9 C 0 km/h
116 16-11-2007 23:11:01 1 C 4.15 g/m*3 1 C 0 km/h
117 16-11-2007 23:23:01 0.9 C 4.18 g/m*3 0.9 C 0 km/h
118 16-11-2007 23:35:01 0.9 C 4.18 g/m*3 0.9 C 0 km/h
119 16-11-2007 23:47:02 0.9 C 4.18 g/m*3 0.9 C 0 km/h
120 16-11-2007 23:59:02 1 C 4.2 g/m*3 1 C 0 km/h
121 17-11-2007 00:11:02 1 C 4.2 g/m*3 1 C 0 km/h
122 17-11-2007 00:23:03 1 C 4.2 g/m*3 1 C 0 km/h
123 17-11-2007 00:35:02 1.1 C 4.18 g/m*3 1.1 C 0 km/h
124 17-11-2007 00:47:02 1.1 C 4.18 g/m*3 1.1 C 0 km/h
125 17-11-2007 00:59:02 1.1 C 4.18 g/m*3 1.1 C 0 km/h
Sensor: Nr:Datum:Temp:Abs-Feuchte:Windchill:Wind:
Aussen-T/F 126 17-11-2007 01:11:02 1.2 C 4.21 g/m*3 1.2 C 0 km/h
127 17-11-2007 01:23:01 1.2 C 4.21 g/m*3 1.2 C 0 km/h
128 17-11-2007 01:35:01 1.3 C 4.19 g/m*3 1.3 C 0 km/h
129 17-11-2007 01:47:02 1.4 C 4.21 g/m*3 1.4 C 0 km/h
130 17-11-2007 01:59:02 1.4 C 4.21 g/m*3 1.4 C 0 km/h
131 17-11-2007 02:11:02 1.4 C 4.16 g/m*3 1.4 C 0 km/h
132 17-11-2007 02:23:02 1.5 C 4.14 g/m*3 1.5 C 0 km/h
133 17-11-2007 02:35:02 1.5 C 4.14 g/m*3 1.5 C 0 km/h
134 17-11-2007 02:48:03 1.5 C 4.14 g/m*3 1.5 C 0 km/h
135 17-11-2007 03:00:04 1.5 C 4.19 g/m*3 1.5 C 0 km/h
136 17-11-2007 03:12:04 1.5 C 4.19 g/m*3 1.5 C 0 km/h
137 17-11-2007 03:24:04 1.6 C 4.16 g/m*3 1.6 C 0 km/h
138 17-11-2007 03:36:02 1.6 C 4.22 g/m*3 1.6 C 0 km/h
139 17-11-2007 03:48:02 1.7 C 4.14 g/m*3 1.7 C 0 km/h
140 17-11-2007 04:00:02 1.7 C 4.19 g/m*3 1.7 C 0 km/h
141 17-11-2007 04:12:02 1.7 C 4.14 g/m*3 1.7 C 0 km/h
142 17-11-2007 04:24:02 1.7 C 4.19 g/m*3 1.7 C 0 km/h
143 17-11-2007 04:36:02 1.7 C 4.19 g/m*3 1.7 C 0 km/h
144 17-11-2007 04:48:02 1.7 C 4.19 g/m*3 1.7 C 0 km/h
145 17-11-2007 05:00:02 1.9 C 4.3 g/m*3 1.9 C 0 km/h
146 17-11-2007 05:12:01 1.9 C 4.3 g/m*3 1.9 C 0 km/h
147 17-11-2007 05:24:01 1.9 C 4.25 g/m*3 1.9 C 0 km/h
148 17-11-2007 05:36:01 1.8 C 4.28 g/m*3 1.8 C 0 km/h
149 17-11-2007 05:48:02 1.8 C 4.28 g/m*3 1.8 C 0 km/h
150 17-11-2007 06:00:02 1.9 C 4.3 g/m*3 1.9 C 0 km/h
Sensor: Nr:Datum:Temp:Abs-Feuchte:Windchill:Wind:
Aussen-T/F 151 17-11-2007 06:12:02 1.9 C 4.3 g/m*3 1.9 C 0 km/h
152 17-11-2007 06:24:02 1.9 C 4.36 g/m*3 1.9 C 0 km/h
153 17-11-2007 06:36:02 1.9 C 4.36 g/m*3 1.9 C 0 km/h
154 17-11-2007 06:48:03 1.9 C 4.36 g/m*3 1.9 C 0 km/h
155 17-11-2007 07:00:03 1.9 C 4.36 g/m*3 1.9 C 0 km/h
156 17-11-2007 07:12:02 1.9 C 4.36 g/m*3 1.9 C 0 km/h
157 17-11-2007 07:24:02 1.9 C 4.36 g/m*3 1.9 C 0 km/h
158 17-11-2007 07:36:02 1.9 C 4.36 g/m*3 1.9 C 0 km/h
159 17-11-2007 07:48:02 1.9 C 4.36 g/m*3 1.9 C 0 km/h
160 17-11-2007 08:00:02 2 C 4.39 g/m*3 2 C 0 km/h
161 17-11-2007 08:12:02 2 C 4.39 g/m*3 2 C 0 km/h
162 17-11-2007 08:24:02 2.1 C 4.42 g/m*3 2.1 C 0 km/h
163 17-11-2007 08:36:02 2.2 C 4.45 g/m*3 2.2 C 0 km/h
164 17-11-2007 08:48:03 2.2 C 4.45 g/m*3 2.2 C 0 km/h
165 17-11-2007 09:00:03 2.2 C 4.45 g/m*3 2.2 C 0 km/h
166 17-11-2007 09:12:02 2.3 C 4.48 g/m*3 2.3 C 0 km/h
167 17-11-2007 09:24:02 2.3 C 4.42 g/m*3 2.3 C 0 km/h
168 17-11-2007 09:36:02 2.4 C 4.4 g/m*3 2.4 C 0 km/h
169 17-11-2007 09:48:02 2.6 C 4.46 g/m*3 2.6 C 0 km/h
170 17-11-2007 10:00:02 2.7 C 4.49 g/m*3 2.7 C 0 km/h
171 17-11-2007 10:12:02 2.7 C 4.49 g/m*3 2.7 C 0 km/h
172 17-11-2007 10:24:02 3 C 4.46 g/m*3 3 C 0 km/h
173 17-11-2007 10:36:02 3.1 C 4.43 g/m*3 3.1 C 0 km/h
174 17-11-2007 10:48:02 3.2 C 4.4 g/m*3 3.2 C 0 km/h
175 17-11-2007 11:00:02 3.3 C 4.43 g/m*3 3.3 C 0 km/h
Sensor: Nr:Datum:Temp:Abs-Feuchte:Windchill:Wind:
Aussen-T/F 176 17-11-2007 11:12:02 3.4 C 4.46 g/m*3 3.4 C 0 km/h
177 17-11-2007 11:24:02 3.7 C 4.49 g/m*3 3.7 C 0 km/h
178 17-11-2007 11:36:02 4.1 C 4.48 g/m*3 4.1 C 0 km/h
179 17-11-2007 11:48:03 4.2 C 4.51 g/m*3 4.2 C 0 km/h
180 17-11-2007 12:00:03 4.2 C 4.45 g/m*3 4.2 C 0 km/h
181 17-11-2007 12:12:03 4.4 C 4.51 g/m*3 4.4 C 0 km/h
182 17-11-2007 12:24:03 4.7 C 4.6 g/m*3 4.7 C 0 km/h
183 17-11-2007 12:36:03 5.1 C 4.65 g/m*3 5.1 C 0 km/h
184 17-11-2007 12:48:02 5.4 C 4.67 g/m*3 5.4 C 0 km/h
185 17-11-2007 13:00:02 5.5 C 4.71 g/m*3 5.5 C 0 km/h
186 17-11-2007 13:12:02 5.5 C 4.64 g/m*3 5.5 C 0 km/h
187 17-11-2007 13:24:02 5.6 C 4.81 g/m*3 5.6 C 0 km/h
188 17-11-2007 13:36:02 5.7 C 4.77 g/m*3 5.7 C 0 km/h
189 17-11-2007 13:48:02 6 C 4.86 g/m*3 6 C 0 km/h
190 17-11-2007 14:00:02 6.3 C 4.96 g/m*3 6.3 C 0 km/h
191 17-11-2007 14:12:02 6.6 C 4.98 g/m*3 6.6 C 0 km/h
192 17-11-2007 14:24:02 6.6 C 4.98 g/m*3 6.6 C 0 km/h
193 17-11-2007 14:36:02 6.5 C 4.95 g/m*3 6.5 C 0 km/h
194 17-11-2007 14:48:03 6.3 C 4.96 g/m*3 6.3 C 0 km/h
195 17-11-2007 15:00:03 6.3 C 5.03 g/m*3 6.3 C 0 km/h
196 17-11-2007 15:12:03 6.3 C 5.03 g/m*3 6.3 C 0 km/h
197 17-11-2007 15:24:03 6.2 C 5 g/m*3 6.2 C 0 km/h
198 17-11-2007 15:36:03 6.2 C 5.07 g/m*3 6.2 C 0 km/h
199 17-11-2007 15:48:01 6 C 5.01 g/m*3 6 C 0 km/h
200 17-11-2007 16:00:01 5.9 C 5.05 g/m*3 5.9 C 0 km/h
Sensor: Nr:Datum:Temp:Abs-Feuchte:Windchill:Wind:
Aussen-T/F 201 17-11-2007 16:12:01 5.6 C 5.02 g/m*3 5.6 C 0 km/h
202 17-11-2007 16:24:01 5.4 C 5.02 g/m*3 5.4 C 0 km/h
203 17-11-2007 16:36:01 5.3 C 5.13 g/m*3 5.3 C 0 km/h
204 17-11-2007 16:48:03 5 C 5.1 g/m*3 5 C 0 km/h
205 17-11-2007 17:00:03 4.8 C 5.16 g/m*3 4.8 C 0 km/h
206 17-11-2007 17:12:03 4.7 C 5.13 g/m*3 4.7 C 0 km/h
207 17-11-2007 17:24:02 4.6 C 5.16 g/m*3 4.6 C 0 km/h
208 17-11-2007 17:36:02 4.5 C 5.13 g/m*3 4.5 C 0 km/h
209 17-11-2007 17:48:02 4.4 C 5.16 g/m*3 4.4 C 0 km/h
210 17-11-2007 18:00:02 4.3 C 5.12 g/m*3 4.3 C 0 km/h
211 17-11-2007 18:12:02 4.3 C 5.19 g/m*3 4.3 C 0 km/h
212 17-11-2007 18:24:01 4.2 C 5.15 g/m*3 4.2 C 0 km/h
213 17-11-2007 18:36:02 4.2 C 5.15 g/m*3 4.2 C 0 km/h
214 17-11-2007 18:48:02 4.2 C 5.15 g/m*3 4.2 C 0 km/h
215 17-11-2007 19:00:02 4.1 C 5.12 g/m*3 4.1 C 0 km/h
216 17-11-2007 19:12:02 4 C 5.15 g/m*3 4 C 0 km/h
217 17-11-2007 19:24:02 4 C 5.15 g/m*3 4 C 0 km/h
218 17-11-2007 19:36:02 4 C 5.15 g/m*3 4 C 0 km/h
219 17-11-2007 19:48:02 4.3 C 5.25 g/m*3 4.3 C 0 km/h
220 17-11-2007 20:00:02 4.1 C 5.18 g/m*3 4.1 C 0 km/h
221 17-11-2007 20:12:02 4.3 C 5.25 g/m*3 4.3 C 0 km/h
222 17-11-2007 20:24:02 4 C 5.15 g/m*3 4 C 0 km/h
223 17-11-2007 20:36:02 4 C 5.15 g/m*3 4 C 0 km/h
224 17-11-2007 20:48:02 3.9 C 5.18 g/m*3 3.9 C 0 km/h
225 17-11-2007 21:00:02 4.4 C 5.35 g/m*3 4.4 C 0 km/h
Sensor: Nr:Datum:Temp:Abs-Feuchte:Windchill:Wind:
Aussen-T/F 226 17-11-2007 21:12:02 3.8 C 5.21 g/m*3 3.8 C 0 km/h
227 17-11-2007 21:24:03 3.7 C 5.17 g/m*3 3.7 C 0 km/h
228 17-11-2007 21:36:03 3.7 C 5.17 g/m*3 3.7 C 0 km/h
229 17-11-2007 21:48:02 3.6 C 5.14 g/m*3 3.6 C 0 km/h
230 17-11-2007 22:00:02 3.6 C 5.14 g/m*3 3.6 C 0 km/h
231 17-11-2007 22:12:02 3.6 C 5.14 g/m*3 3.6 C 0 km/h
232 17-11-2007 22:24:02 3.5 C 5.16 g/m*3 3.5 C 0 km/h
233 17-11-2007 22:36:02 3.5 C 5.16 g/m*3 3.5 C 0 km/h
234 17-11-2007 22:48:02 3.5 C 5.16 g/m*3 3.5 C 0 km/h
235 17-11-2007 23:00:02 3.5 C 5.16 g/m*3 3.5 C 0 km/h
236 17-11-2007 23:12:01 3.4 C 5.13 g/m*3 3.4 C 0 km/h
237 17-11-2007 23:24:02 3.4 C 5.13 g/m*3 3.4 C 0 km/h
238 17-11-2007 23:36:02 3.4 C 5.19 g/m*3 3.4 C 0 km/h
239 17-11-2007 23:48:02 3.3 C 5.1 g/m*3 3.3 C 0 km/h

Legende:
   Min
   Max


Maximal/Minimal-Werte vom 17.04.2019 - 19.05.2019

Sensor Min Max Avg
Temp
(Aussen-T/F)
2.2 °C
13-05-2019  06:50:00
26.6 °C
24-04-2019  17:05:00
11.51 °C

Die Daten stammen von einer Davis Vantage Pro 2 Wetter-Station und werden unter Linux mit der Software wview2wettercgi und aufbereitet. Alle Angaben erfolgen ohne Gewähr für ihre Vollständigkeit oder Richtigkeit.
Kontakt: Rainer Krienke krienke@uni-koblenz.de . Meine Webseiten an der Uni Koblenz oder privat.
Version: $Revision: 0.78 $